Time;durP1;ratioP1;P1;durP2;ratioP2;P2;SDS_P1;SDS_P2;PMS_P1;PMS_P2;Temp;Humidity;BMP_temperature;BMP_pressure;BME280_temperature;BME280_humidity;BME280_pressure;Samples;Min_cycle;Max_cycle;Signal;HPM_P1;HPM_P2
2022/08/25 00:01:54;;;;;;;6.97;4.43;;;28.30;59.50;;;;;;5054167;28;20266;-95
2022/08/25 00:04:23;;;;;;;9.63;4.90;;;28.30;59.70;;;;;;5053706;28;20208;-95
2022/08/25 00:06:54;;;;;;;9.23;5.30;;;28.30;59.80;;;;;;5052013;28;20597;-95
2022/08/25 00:09:26;;;;;;;14.10;7.07;;;28.20;59.90;;;;;;5040778;28;20230;-95
2022/08/25 00:11:54;;;;;;;5.43;4.00;;;28.20;59.90;;;;;;5047419;28;20558;-95
2022/08/25 00:14:25;;;;;;;9.83;5.50;;;28.20;59.70;;;;;;5053097;28;20208;-95
2022/08/25 00:16:55;;;;;;;8.40;5.37;;;28.10;60.00;;;;;;5052794;28;20200;-95
2022/08/25 00:19:25;;;;;;;9.67;6.03;;;28.10;60.20;;;;;;5055095;28;20243;-95
2022/08/25 00:21:56;;;;;;;9.20;5.80;;;28.10;60.30;;;;;;5055644;28;20197;-96
2022/08/25 00:24:28;;;;;;;9.00;5.57;;;28.10;60.60;;;;;;5056194;28;20251;-96
2022/08/25 00:27:00;;;;;;;9.37;5.83;;;28.10;60.50;;;;;;5056451;28;20204;-96
2022/08/25 00:29:28;;;;;;;5.90;4.57;;;28.10;60.70;;;;;;5054568;28;20204;-95
2022/08/25 00:31:58;;;;;;;8.23;5.47;;;28.00;60.50;;;;;;5054860;28;20207;-95
2022/08/25 00:34:32;;;;;;;10.83;6.47;;;28.00;60.70;;;;;;5055146;28;20228;-95
2022/08/25 00:37:01;;;;;;;11.57;6.47;;;28.00;60.90;;;;;;5055458;28;20214;-95
2022/08/25 00:39:30;;;;;;;9.50;6.27;;;28.00;60.90;;;;;;5055702;28;20258;-96
2022/08/25 00:41:59;;;;;;;7.10;4.93;;;27.90;61.00;;;;;;5055094;28;20212;-94
2022/08/25 00:44:28;;;;;;;12.33;6.43;;;27.90;60.90;;;;;;5050715;28;20216;-94
2022/08/25 00:47:01;;;;;;;9.73;5.57;;;27.90;60.90;;;;;;5051637;28;20278;-93
2022/08/25 00:49:32;;;;;;;9.90;6.07;;;27.90;61.20;;;;;;5051379;28;20211;-93
2022/08/25 00:52:05;;;;;;;15.27;7.87;;;27.90;61.30;;;;;;5048234;28;20200;-94
2022/08/25 00:54:34;;;;;;;9.67;5.90;;;27.80;61.40;;;;;;5050888;28;20231;-93
2022/08/25 00:57:05;;;;;;;8.10;5.27;;;27.80;61.30;;;;;;5050696;28;20212;-94
2022/08/25 00:59:34;;;;;;;12.37;6.10;;;27.80;61.40;;;;;;5051633;28;20290;-94
2022/08/25 01:02:06;;;;;;;8.63;5.07;;;27.80;61.30;;;;;;5050922;28;20309;-93
2022/08/25 01:04:34;;;;;;;8.67;5.20;;;27.70;61.20;;;;;;5051822;28;20204;-93
2022/08/25 01:07:02;;;;;;;12.43;6.87;;;27.70;61.30;;;;;;5050127;28;20231;-94
2022/08/25 01:09:31;;;;;;;14.77;7.43;;;27.70;61.40;;;;;;5049527;28;20203;-93
2022/08/25 01:12:00;;;;;;;8.23;5.27;;;27.70;61.60;;;;;;5058172;28;20204;-93
2022/08/25 01:14:30;;;;;;;12.30;6.17;;;27.60;61.70;;;;;;5054697;28;20235;-94
2022/08/25 01:16:58;;;;;;;6.10;4.27;;;27.60;61.70;;;;;;5057930;28;20208;-94
2022/08/25 01:19:33;;;;;;;8.40;4.87;;;27.60;61.70;;;;;;5056094;28;20243;-93
2022/08/25 01:22:07;;;;;;;12.67;6.20;;;27.50;61.70;;;;;;5050117;28;20267;-94
2022/08/25 01:24:41;;;;;;;12.57;6.73;;;27.50;61.80;;;;;;5067139;28;20352;-94
2022/08/25 01:27:09;;;;;;;9.57;5.30;;;27.50;61.80;;;;;;5064436;28;20196;-94
2022/08/25 01:29:37;;;;;;;12.97;5.97;;;27.40;61.70;;;;;;5077089;22;20287;-94
2022/08/25 01:32:06;;;;;;;8.37;4.57;;;27.40;61.80;;;;;;5024105;28;20255;-95
2022/08/25 01:34:59;;;;;;;6.23;4.53;;;27.40;62.20;;;;;;5022316;28;20248;-94
2022/08/25 01:37:29;;;;;;;7.77;4.70;;;27.40;62.70;;;;;;5018268;28;20561;-95
2022/08/25 01:39:57;;;;;;;13.03;6.20;;;27.30;62.40;;;;;;5015377;28;20682;-94
2022/08/25 01:42:47;;;;;;;5.80;4.00;;;27.20;62.10;;;;;;5016326;28;20228;-94
2022/08/25 01:45:15;;;;;;;5.53;4.13;;;27.20;62.50;;;;;;5015834;28;20811;-94
2022/08/25 01:47:44;;;;;;;8.63;4.87;;;27.20;62.40;;;;;;5015917;28;20217;-94
2022/08/25 01:50:13;;;;;;;8.23;4.97;;;27.10;62.50;;;;;;5011362;28;20678;-94
2022/08/25 01:52:51;;;;;;;6.50;4.27;;;27.10;62.50;;;;;;5015934;28;20719;-94
2022/08/25 01:55:20;;;;;;;4.57;3.90;;;27.10;63.00;;;;;;5016207;28;20205;-94
2022/08/25 01:57:47;;;;;;;9.40;5.07;;;27.10;62.70;;;;;;5008917;28;20214;-94
2022/08/25 02:00:16;;;;;;;6.00;4.00;;;27.00;62.70;;;;;;5012053;28;20224;-93
2022/08/25 02:02:51;;;;;;;6.97;4.70;;;27.00;62.90;;;;;;5015501;28;20205;-94
2022/08/25 02:05:20;;;;;;;6.13;4.13;;;26.90;62.90;;;;;;5013198;28;20210;-94
2022/08/25 02:07:49;;;;;;;7.10;4.40;;;26.90;63.00;;;;;;5005302;28;20577;-95
2022/08/25 02:10:17;;;;;;;8.67;4.63;;;26.90;63.20;;;;;;5014663;28;20209;-94
2022/08/25 02:12:45;;;;;;;6.30;4.77;;;26.90;63.10;;;;;;5015578;28;20252;-93
2022/08/25 02:15:13;;;;;;;7.30;4.43;;;26.80;63.00;;;;;;5013568;28;20970;-94
2022/08/25 02:20:08;;;;;;;11.73;4.77;;;26.70;63.30;;;;;;4993681;28;20690;-94
2022/08/25 02:22:36;;;;;;;7.90;4.57;;;26.70;64.20;;;;;;4993535;28;20221;-94
2022/08/25 02:25:06;;;;;;;9.03;4.73;;;26.60;63.40;;;;;;4981216;28;20216;-94
2022/08/25 02:27:35;;;;;;;7.23;5.00;;;26.60;63.70;;;;;;4995741;28;20210;-94
2022/08/25 02:30:05;;;;;;;8.87;5.57;;;26.60;64.10;;;;;;4995217;28;20206;-94
2022/08/25 02:32:32;;;;;;;7.20;5.30;;;26.50;63.70;;;;;;4995964;28;20734;-94
2022/08/25 02:35:00;;;;;;;6.43;4.50;;;26.50;63.70;;;;;;4992423;28;20294;-95
2022/08/25 02:37:27;;;;;;;8.70;4.93;;;26.50;63.90;;;;;;4992983;28;20198;-94
2022/08/25 02:39:58;;;;;;;13.73;7.23;;;26.40;63.70;;;;;;4995580;28;20567;-94
2022/08/25 02:42:29;;;;;;;11.03;7.33;;;26.40;64.10;;;;;;4983640;28;20208;-94
2022/08/25 02:44:56;;;;;;;9.17;7.20;;;26.40;64.40;;;;;;4994033;28;20294;-94
2022/08/25 02:47:25;;;;;;;10.93;7.77;;;26.40;64.20;;;;;;4996388;28;20233;-93
2022/08/25 02:49:54;;;;;;;12.40;8.57;;;26.30;64.50;;;;;;5000262;28;20646;-95
2022/08/25 02:52:21;;;;;;;18.17;9.93;;;26.30;64.50;;;;;;5000668;28;20210;-94
2022/08/25 02:54:48;;;;;;;16.00;9.67;;;26.30;64.70;;;;;;5005833;28;20222;-94
2022/08/25 02:57:16;;;;;;;12.60;9.80;;;26.20;64.70;;;;;;5005525;28;20209;-94
2022/08/25 02:59:47;;;;;;;15.33;8.90;;;26.20;64.80;;;;;;5010890;28;20198;-94
2022/08/25 03:02:15;;;;;;;14.43;9.70;;;26.20;65.00;;;;;;5006025;28;20277;-94
2022/08/25 03:04:42;;;;;;;16.60;10.57;;;26.20;64.60;;;;;;5003269;28;20214;-94
2022/08/25 03:07:10;;;;;;;12.17;8.93;;;26.10;64.90;;;;;;4999339;28;20206;-94
2022/08/25 03:09:38;;;;;;;13.07;9.37;;;26.10;65.00;;;;;;4997022;28;20214;-94
2022/08/25 03:12:05;;;;;;;19.67;11.23;;;26.10;65.00;;;;;;4993627;28;20320;-94
2022/08/25 03:14:33;;;;;;;14.17;9.53;;;26.10;65.00;;;;;;4994944;28;20234;-94
2022/08/25 03:20:10;;;;;;;14.17;10.03;;;26.10;65.10;;;;;;5021005;22;20240;-95
2022/08/25 03:28:04;;;;;;;15.57;10.10;;;26.00;65.00;;;;;;5013282;28;20678;-94
2022/08/25 03:30:32;;;;;;;11.67;9.27;;;26.00;65.10;;;;;;5014563;28;20350;-94
2022/08/25 03:33:01;;;;;;;11.67;9.33;;;26.00;65.30;;;;;;5013808;28;20228;-94
2022/08/25 03:35:36;;;;;;;11.90;9.40;;;26.00;65.30;;;;;;5016246;28;20338;-94
2022/08/25 03:38:03;;;;;;;17.20;10.33;;;25.90;65.40;;;;;;5004118;28;20302;-94
2022/08/25 03:40:32;;;;;;;16.33;9.87;;;25.90;65.50;;;;;;5012374;28;20197;-92
2022/08/25 03:43:00;;;;;;;16.07;10.17;;;25.90;65.70;;;;;;5008615;28;20205;-92
2022/08/25 03:45:28;;;;;;;13.13;9.20;;;25.90;65.60;;;;;;5013052;28;20225;-92
2022/08/25 03:47:56;;;;;;;16.50;10.50;;;25.90;65.80;;;;;;5015492;28;20252;-92
2022/08/25 03:50:29;;;;;;;12.37;9.53;;;25.90;65.80;;;;;;5005470;28;20272;-92
2022/08/25 03:52:59;;;;;;;10.73;8.33;;;25.80;66.10;;;;;;5008727;28;20224;-92
2022/08/25 03:55:28;;;;;;;16.50;10.60;;;25.80;66.10;;;;;;5001567;28;20631;-93
2022/08/25 03:57:57;;;;;;;12.37;9.20;;;25.80;66.10;;;;;;5012218;28;20292;-93
2022/08/25 04:00:26;;;;;;;10.77;8.97;;;25.70;66.00;;;;;;5011390;28;20251;-91
2022/08/25 04:02:53;;;;;;;13.60;9.30;;;25.70;66.00;;;;;;5012513;28;20272;-91
2022/08/25 04:05:21;;;;;;;12.80;9.73;;;25.70;66.00;;;;;;5011375;28;20202;-92
2022/08/25 04:07:50;;;;;;;15.87;10.07;;;25.70;66.10;;;;;;5011813;28;20297;-92
2022/08/25 04:10:19;;;;;;;19.67;11.43;;;25.60;66.30;;;;;;5011625;28;20208;-92
2022/08/25 04:12:48;;;;;;;16.17;10.50;;;25.60;66.30;;;;;;5012203;28;20201;-93
2022/08/25 04:15:18;;;;;;;14.87;10.10;;;25.60;66.30;;;;;;5012562;28;20256;-93
2022/08/25 04:17:45;;;;;;;15.37;10.60;;;25.50;66.10;;;;;;5012925;28;20229;-93
2022/08/25 04:20:17;;;;;;;11.37;8.60;;;25.50;66.40;;;;;;5011320;28;20237;-92
2022/08/25 04:22:45;;;;;;;12.03;8.50;;;25.50;66.80;;;;;;5006456;28;20201;-93
2022/08/25 04:25:13;;;;;;;18.37;10.80;;;25.40;66.60;;;;;;5015738;28;20206;-94
2022/08/25 04:27:45;;;;;;;15.10;9.90;;;25.40;66.60;;;;;;5010917;28;20259;-93
2022/08/25 04:30:14;;;;;;;14.63;9.80;;;25.40;67.20;;;;;;5010525;28;20287;-94
2022/08/25 04:32:42;;;;;;;13.33;8.93;;;25.40;67.00;;;;;;5012085;28;20213;-93
2022/08/25 04:35:10;;;;;;;19.57;11.70;;;25.40;66.90;;;;;;5010824;28;20323;-94
2022/08/25 04:37:38;;;;;;;12.23;8.63;;;25.30;66.90;;;;;;5011470;28;20202;-94
2022/08/25 04:40:06;;;;;;;13.73;9.07;;;25.40;67.00;;;;;;4996626;28;20213;-93
2022/08/25 04:42:33;;;;;;;13.60;9.30;;;25.30;67.00;;;;;;5012144;28;20698;-93
2022/08/25 04:45:11;;;;;;;11.67;9.30;;;25.20;67.00;;;;;;5012674;28;20251;-93
2022/08/25 04:47:42;;;;;;;12.33;9.07;;;25.20;67.50;;;;;;4996843;28;20646;-93
2022/08/25 04:50:09;;;;;;;11.73;8.80;;;25.20;67.30;;;;;;5008353;28;20221;-93
2022/08/25 04:52:39;;;;;;;11.07;9.27;;;25.20;67.10;;;;;;5014240;28;20212;-93
2022/08/25 04:55:07;;;;;;;10.67;8.37;;;25.10;67.10;;;;;;5011559;28;20352;-93
2022/08/25 04:57:36;;;;;;;14.13;9.10;;;25.10;67.30;;;;;;5013628;28;20565;-93
2022/08/25 05:00:06;;;;;;;14.57;9.03;;;25.10;67.40;;;;;;5013176;28;20215;-94
2022/08/25 05:02:35;;;;;;;11.07;8.23;;;25.10;67.50;;;;;;5018546;28;20201;-95
2022/08/25 05:05:09;;;;;;;13.57;9.07;;;25.00;67.50;;;;;;5016655;28;20261;-92
2022/08/25 05:07:37;;;;;;;14.23;9.70;;;25.00;67.90;;;;;;5021365;28;20201;-95
2022/08/25 05:10:05;;;;;;;14.73;9.80;;;25.00;67.70;;;;;;5017044;28;20201;-96
2022/08/25 05:12:36;;;;;;;13.27;9.53;;;24.90;67.70;;;;;;5019795;28;20205;-96
2022/08/25 05:15:49;;;;;;;10.03;8.03;;;24.90;68.10;;;;;;5006397;28;20233;-96
2022/08/25 05:17:54;;;;;;;11.80;8.60;;;24.90;68.00;;;;;;5016390;28;20229;-95
2022/08/25 05:20:23;;;;;;;11.73;8.90;;;24.90;68.10;;;;;;5007880;28;20265;-96
2022/08/25 05:22:51;;;;;;;11.03;9.10;;;24.90;68.20;;;;;;5010776;28;20215;-95
2022/08/25 05:25:19;;;;;;;16.53;10.87;;;24.80;67.80;;;;;;5024135;28;20209;-95
2022/08/25 05:27:47;;;;;;;12.23;10.90;;;24.80;68.00;;;;;;5023557;28;20201;-95
2022/08/25 05:30:21;;;;;;;14.10;11.40;;;24.80;68.20;;;;;;5022065;28;20206;-95
2022/08/25 05:32:49;;;;;;;20.83;13.17;;;24.80;68.90;;;;;;5015693;28;20197;-92
2022/08/25 05:35:29;;;;;;;12.40;10.73;;;24.80;68.50;;;;;;5017693;28;20233;-96
2022/08/25 05:38:02;;;;;;;14.80;10.63;;;24.80;68.90;;;;;;5020198;28;20255;-95
2022/08/25 05:40:33;;;;;;;16.47;11.93;;;24.80;68.90;;;;;;5019726;28;20677;-95
2022/08/25 05:43:08;;;;;;;14.67;11.80;;;24.80;68.80;;;;;;5015615;28;20210;-95
2022/08/25 05:45:42;;;;;;;15.00;11.53;;;24.80;69.30;;;;;;5002372;28;20260;-96
2022/08/25 05:48:11;;;;;;;13.00;10.70;;;24.80;69.60;;;;;;5003228;28;20208;-96
2022/08/25 05:50:57;;;;;;;18.17;11.73;;;24.80;69.40;;;;;;5019024;28;20208;-96
2022/08/25 05:53:26;;;;;;;15.67;12.17;;;24.80;70.00;;;;;;5016811;28;20202;-96
2022/08/25 05:55:57;;;;;;;13.40;10.60;;;24.80;69.60;;;;;;5015836;28;20221;-95
2022/08/25 05:58:27;;;;;;;19.00;14.47;;;24.80;70.10;;;;;;5017792;28;20202;-96
2022/08/25 06:00:55;;;;;;;13.90;12.40;;;24.80;70.10;;;;;;5015313;28;20200;-96
2022/08/25 06:03:22;;;;;;;16.83;11.67;;;24.80;70.20;;;;;;5015101;28;20650;-95
2022/08/25 06:05:49;;;;;;;19.40;13.60;;;24.80;70.10;;;;;;5015094;28;20229;-95
2022/08/25 06:08:25;;;;;;;17.60;13.97;;;24.80;70.70;;;;;;5017001;28;20205;-95
2022/08/25 06:10:57;;;;;;;17.73;14.07;;;24.80;71.30;;;;;;5014724;28;20258;-96
2022/08/25 06:13:25;;;;;;;18.27;13.77;;;24.90;71.00;;;;;;5013429;28;20213;-95
2022/08/25 06:15:57;;;;;;;24.10;15.23;;;24.90;71.00;;;;;;5012303;28;20209;-94
2022/08/25 06:18:24;;;;;;;16.27;12.53;;;24.90;71.70;;;;;;5010176;28;20596;-94
2022/08/25 06:20:52;;;;;;;16.80;12.30;;;24.90;71.10;;;;;;5018772;28;20229;-96
2022/08/25 06:23:21;;;;;;;21.07;14.43;;;25.00;71.20;;;;;;5013819;28;20209;-96
2022/08/25 06:26:10;;;;;;;13.23;11.87;;;25.00;71.40;;;;;;5024500;28;20278;-96
2022/08/25 06:28:37;;;;;;;15.07;12.87;;;25.00;72.00;;;;;;5021658;28;20205;-96
2022/08/25 06:31:04;;;;;;;15.17;11.47;;;25.10;71.20;;;;;;5019431;28;20623;-96
2022/08/25 06:33:33;;;;;;;18.03;13.00;;;25.10;71.20;;;;;;5017273;28;20275;-96
2022/08/25 06:36:01;;;;;;;19.80;12.60;;;25.20;71.40;;;;;;5017719;28;20291;-96
2022/08/25 06:40:59;;;;;;;16.07;11.67;;;25.20;71.30;;;;;;5024088;28;20265;-96
2022/08/25 06:43:28;;;;;;;22.03;13.50;;;25.30;71.40;;;;;;5023924;28;20213;-94
2022/08/25 06:45:56;;;;;;;15.90;10.80;;;25.30;71.40;;;;;;5014763;28;20313;-94
2022/08/25 06:48:24;;;;;;;14.67;10.70;;;25.30;71.40;;;;;;5022493;28;20205;-94
2022/08/25 06:50:51;;;;;;;19.40;11.50;;;25.40;71.40;;;;;;5016632;28;20205;-93
2022/08/25 06:53:18;;;;;;;16.23;11.40;;;25.40;71.50;;;;;;5011908;28;20737;-94
2022/08/25 06:55:45;;;;;;;17.07;11.70;;;25.40;71.70;;;;;;5013528;28;22218;-95
2022/08/25 06:58:12;;;;;;;20.17;12.40;;;25.50;71.70;;;;;;5018434;28;20204;-93
2022/08/25 07:00:46;;;;;;;14.87;10.83;;;25.50;71.70;;;;;;5017257;28;20198;-93
2022/08/25 07:03:15;;;;;;;15.47;10.37;;;25.60;71.80;;;;;;5021586;28;20289;-93
2022/08/25 07:05:42;;;;;;;15.83;9.97;;;25.60;71.60;;;;;;5018053;28;20212;-95
2022/08/25 07:08:12;;;;;;;14.43;9.97;;;25.70;71.20;;;;;;5020708;28;20269;-95
2022/08/25 07:10:49;;;;;;;16.07;9.87;;;25.70;70.40;;;;;;5032716;28;20198;-94
2022/08/25 07:13:17;;;;;;;17.50;9.87;;;25.80;70.30;;;;;;5031229;28;20325;-94
2022/08/25 07:16:14;;;;;;;20.73;11.37;;;25.90;69.60;;;;;;5029617;28;20259;-93
2022/08/25 07:18:48;;;;;;;14.30;8.70;;;25.90;69.00;;;;;;5031802;28;20200;-96
2022/08/25 07:21:17;;;;;;;11.53;8.40;;;26.00;69.10;;;;;;5027125;28;20197;-95
2022/08/25 07:23:53;;;;;;;13.60;7.60;;;26.00;68.90;;;;;;5019559;28;20567;-93
2022/08/25 07:26:24;;;;;;;11.57;7.83;;;26.10;68.60;;;;;;5019727;28;20205;-95
2022/08/25 07:28:54;;;;;;;12.07;8.23;;;26.10;68.30;;;;;;5019789;28;20398;-95
2022/08/25 07:31:26;;;;;;;14.13;8.03;;;26.20;68.10;;;;;;5020448;28;20202;-94
2022/08/25 07:36:40;;;;;;;15.37;9.17;;;26.30;67.90;;;;;;5010435;28;20256;-95
2022/08/25 07:39:07;;;;;;;11.80;6.67;;;26.30;67.60;;;;;;5010632;28;20271;-95
2022/08/25 07:41:40;;;;;;;12.80;8.10;;;26.40;67.30;;;;;;5014227;28;20228;-95
2022/08/25 07:44:11;;;;;;;14.00;8.40;;;26.50;66.60;;;;;;5008708;28;20229;-95
2022/08/25 07:46:40;;;;;;;20.30;9.50;;;26.50;66.20;;;;;;5004611;28;20645;-95
2022/08/25 07:49:19;;;;;;;14.63;9.07;;;26.60;65.80;;;;;;5011295;28;20240;-96
2022/08/25 07:51:47;;;;;;;15.73;8.57;;;26.70;65.70;;;;;;5015701;28;20209;-95
2022/08/25 07:54:18;;;;;;;17.07;9.27;;;26.80;65.70;;;;;;4997510;28;20272;-94
2022/08/25 07:56:45;;;;;;;15.43;9.00;;;26.80;65.50;;;;;;5013180;28;20210;-95
2022/08/25 07:59:13;;;;;;;11.13;7.43;;;26.90;65.40;;;;;;5014157;28;20752;-94
2022/08/25 08:01:52;;;;;;;11.07;7.40;;;26.90;65.00;;;;;;5016291;28;20205;-95
2022/08/25 08:04:20;;;;;;;15.23;8.47;;;27.00;64.10;;;;;;5025017;28;20232;-95
2022/08/25 08:06:47;;;;;;;9.70;6.50;;;27.10;64.20;;;;;;5015420;28;20224;-94
2022/08/25 08:09:18;;;;;;;12.60;6.87;;;27.20;64.10;;;;;;5017212;28;20223;-94
2022/08/25 08:11:45;;;;;;;13.50;6.20;;;27.30;62.70;;;;;;5015561;28;20201;-95
2022/08/25 08:14:15;;;;;;;11.40;5.27;;;27.30;63.10;;;;;;4996098;28;20700;-95
2022/08/25 08:16:48;;;;;;;11.57;5.33;;;27.40;62.80;;;;;;5014616;28;20244;-94
2022/08/25 08:19:15;;;;;;;15.37;6.03;;;27.50;61.30;;;;;;5014108;28;20292;-94
2022/08/25 08:21:45;;;;;;;9.07;4.50;;;27.60;61.70;;;;;;5015353;28;20216;-93
2022/08/25 08:24:14;;;;;;;8.80;4.57;;;27.70;61.10;;;;;;5015988;28;20257;-94
2022/08/25 08:26:43;;;;;;;10.07;5.10;;;27.80;61.30;;;;;;5012126;28;20554;-95
2022/08/25 08:29:10;;;;;;;11.80;5.17;;;27.90;61.00;;;;;;5010967;28;20209;-94
2022/08/25 08:31:37;;;;;;;10.70;5.40;;;28.00;60.50;;;;;;5011940;28;20297;-94
2022/08/25 08:34:37;;;;;;;9.13;4.43;;;28.10;60.00;;;;;;5016096;28;20205;-93
2022/08/25 08:37:04;;;;;;;7.60;4.30;;;28.20;58.60;;;;;;5012936;28;20240;-93
2022/08/25 08:39:33;;;;;;;8.97;5.07;;;28.40;59.50;;;;;;4984745;28;20214;-95
2022/08/25 08:42:21;;;;;;;7.87;3.97;;;28.40;58.90;;;;;;5010487;28;20202;-95
2022/08/25 08:45:18;;;;;;;10.77;4.27;;;28.60;58.50;;;;;;5011841;28;20630;-94
2022/08/25 08:48:18;;;;;;;8.57;4.33;;;28.70;58.60;;;;;;4996445;28;20626;-95
2022/08/25 08:51:03;;;;;;;9.97;3.63;;;28.80;58.50;;;;;;4981587;28;20267;-93
2022/08/25 08:53:40;;;;;;;9.00;4.27;;;29.00;58.30;;;;;;5020927;28;20181;-95
2022/08/25 08:56:11;;;;;;;6.93;3.23;;;29.10;58.30;;;;;;5329891;22;20240;-92
2022/08/25 08:58:42;;;;;;;9.87;4.77;;;29.30;58.10;;;;;;5035914;28;20219;-93
2022/08/25 09:01:15;;;;;;;6.07;3.37;;;29.50;57.70;;;;;;5031689;28;20208;-94
2022/08/25 09:03:45;;;;;;;8.20;3.97;;;29.70;57.50;;;;;;5026272;28;20200;-94
2022/08/25 09:06:20;;;;;;;7.00;3.87;;;29.90;56.90;;;;;;5026319;28;20561;-94
2022/08/25 09:08:47;;;;;;;15.03;6.00;;;30.10;56.60;;;;;;5031789;28;20206;-92
2022/08/25 09:11:28;;;;;;;8.80;4.10;;;30.40;56.50;;;;;;5013956;28;20199;-93
2022/08/25 09:14:09;;;;;;;5.17;3.17;;;30.70;54.80;;;;;;5030987;28;20216;-94
2022/08/25 09:17:03;;;;;;;7.10;3.93;;;30.90;53.70;;;;;;5034278;28;20255;-95
2022/08/25 09:20:03;;;;;;;6.55;3.63;;;31.30;54.30;;;;;;5032608;28;20201;-94
2022/08/25 09:22:49;;;;;;;7.97;4.38;;;31.60;53.50;;;;;;5034427;28;20292;-95
2022/08/25 09:25:40;;;;;;;8.98;4.03;;;31.90;53.00;;;;;;5032414;28;20258;-94
2022/08/25 09:28:11;;;;;;;7.82;4.50;;;32.10;52.80;;;;;;5037820;28;20181;-93
2022/08/25 09:30:45;;;;;;;6.07;3.47;;;32.40;53.50;;;;;;5043348;28;20197;-96
2022/08/25 09:33:23;;;;;;;7.47;4.38;;;32.60;53.00;;;;;;5034881;28;20200;-96
2022/08/25 09:35:54;;;;;;;10.70;5.32;;;32.90;51.10;;;;;;5031411;28;20230;-93
2022/08/25 09:38:24;;;;;;;13.80;6.55;;;33.10;52.60;;;;;;5029219;28;20201;-94
2022/08/25 09:47:24;;;;;;;6.38;3.33;;;33.60;49.90;;;;;;5042074;28;20204;-95
2022/08/25 09:50:07;;;;;;;6.38;3.92;;;33.80;51.30;;;;;;5040144;28;20219;-96
2022/08/25 09:52:43;;;;;;;9.18;5.20;;;33.90;49.60;;;;;;5028365;28;20649;-96
2022/08/25 09:55:33;;;;;;;9.77;4.95;;;34.10;48.90;;;;;;5041616;28;20204;-92
2022/08/25 09:58:16;;;;;;;8.48;4.28;;;34.20;48.00;;;;;;5041670;28;20212;-95
2022/08/25 10:01:06;;;;;;;6.93;4.53;;;34.30;47.20;;;;;;5040899;28;20235;-94
2022/08/25 10:03:36;;;;;;;7.72;4.68;;;34.40;47.90;;;;;;5036830;28;20205;-93
2022/08/25 10:06:10;;;;;;;9.30;6.13;;;34.40;48.90;;;;;;5035897;28;20212;-96
2022/08/25 10:09:00;;;;;;;11.48;5.28;;;34.50;48.40;;;;;;5031923;28;20258;-96
2022/08/25 10:11:41;;;;;;;11.90;5.97;;;34.50;47.80;;;;;;5032399;28;20267;-94
2022/08/25 10:14:28;;;;;;;11.07;5.82;;;34.60;47.10;;;;;;5016782;28;20204;-96
2022/08/25 10:17:23;;;;;;;8.90;5.03;;;34.60;47.70;;;;;;5025388;28;20283;-95
2022/08/25 10:19:58;;;;;;;7.53;4.97;;;34.60;47.70;;;;;;5032779;28;20232;-96
2022/08/25 10:22:31;;;;;;;14.95;8.68;;;34.70;48.00;;;;;;5030947;28;20197;-94
2022/08/25 10:25:01;;;;;;;13.23;9.68;;;34.70;48.40;;;;;;5035488;28;20216;-94
2022/08/25 10:27:46;;;;;;;15.10;10.18;;;34.70;48.70;;;;;;5036006;28;20193;-95
2022/08/25 10:30:19;;;;;;;16.83;10.40;;;34.70;48.60;;;;;;5036418;28;20259;-96
2022/08/25 10:33:17;;;;;;;14.52;11.02;;;34.70;48.80;;;;;;5036618;28;20575;-96
2022/08/25 10:35:54;;;;;;;14.77;10.82;;;34.70;48.70;;;;;;5040050;28;20741;-95
2022/08/25 10:38:58;;;;;;;16.38;10.85;;;34.70;48.70;;;;;;5042942;28;20675;-96
2022/08/25 10:41:46;;;;;;;14.38;11.73;;;34.60;48.60;;;;;;5040071;28;20311;-96
2022/08/25 10:47:44;;;;;;;21.98;15.15;;;34.50;48.80;;;;;;5005037;28;20212;-93
2022/08/25 10:50:23;;;;;;;30.38;16.60;;;34.50;49.70;;;;;;5033916;28;20219;-96
2022/08/25 10:53:24;;;;;;;16.65;14.85;;;34.30;49.50;;;;;;5037694;28;20201;-95
2022/08/25 10:56:22;;;;;;;20.17;18.00;;;34.20;49.80;;;;;;5035897;28;20228;-93
2022/08/25 10:59:05;;;;;;;19.23;15.43;;;34.10;50.20;;;;;;5038457;28;20292;-93
2022/08/25 11:01:48;;;;;;;20.35;17.50;;;34.00;50.60;;;;;;5029886;28;20197;-95
2022/08/25 11:04:28;;;;;;;22.83;18.77;;;33.90;50.80;;;;;;5036689;28;20200;-95
2022/08/25 11:10:12;;;;;;;22.00;18.40;;;33.70;51.50;;;;;;5000293;28;20216;-95
2022/08/25 11:12:47;;;;;;;21.20;18.80;;;33.70;51.80;;;;;;5016146;28;20263;-96
2022/08/25 11:15:28;;;;;;;17.58;15.88;;;33.60;52.10;;;;;;5016225;28;20197;-95
2022/08/25 11:18:01;;;;;;;20.60;18.50;;;33.60;52.60;;;;;;5018282;28;20213;-92
2022/08/25 11:20:35;;;;;;;21.95;16.70;;;33.60;52.70;;;;;;5030105;28;20213;-90
2022/08/25 11:23:11;;;;;;;19.33;17.27;;;33.60;53.00;;;;;;5010328;28;20270;-91
2022/08/25 11:25:43;;;;;;;19.08;17.15;;;33.70;53.10;;;;;;5011270;28;20251;-94
2022/08/25 11:28:13;;;;;;;18.52;15.60;;;33.80;53.00;;;;;;5011560;28;20205;-91
2022/08/25 11:30:43;;;;;;;18.67;15.90;;;33.80;53.10;;;;;;5011853;28;21003;-90
2022/08/25 11:33:16;;;;;;;18.13;15.10;;;33.90;53.00;;;;;;5017265;28;20231;-90
2022/08/25 11:35:47;;;;;;;15.52;13.77;;;33.90;52.90;;;;;;5020448;28;20240;-91
2022/08/25 11:38:29;;;;;;;21.33;15.55;;;34.00;53.00;;;;;;5012600;28;20643;-94
2022/08/25 11:41:09;;;;;;;17.65;15.07;;;34.10;52.80;;;;;;5011478;28;20201;-89
2022/08/25 11:43:52;;;;;;;14.27;11.90;;;34.20;52.90;;;;;;5011149;28;20348;-92
2022/08/25 11:46:44;;;;;;;21.67;14.25;;;34.20;53.00;;;;;;5029465;28;20203;-93
2022/08/25 11:49:30;;;;;;;17.80;14.25;;;34.30;52.60;;;;;;5030867;28;20208;-91
2022/08/25 11:51:58;;;;;;;19.70;14.40;;;34.40;52.60;;;;;;5030697;28;20197;-91
2022/08/25 11:54:29;;;;;;;18.08;13.20;;;34.50;52.80;;;;;;5051803;28;20208;-91
2022/08/25 11:57:00;;;;;;;16.55;13.32;;;34.60;52.80;;;;;;5050364;28;20232;-93
2022/08/25 12:00:19;;;;;;;16.05;14.23;;;34.70;52.80;;;;;;5049047;28;20197;-92
2022/08/25 12:02:49;;;;;;;23.27;13.35;;;34.80;52.60;;;;;;4958427;29;20196;-92
2022/08/25 12:05:46;;;;;;;14.38;11.98;;;35.00;52.70;;;;;;5022286;28;20985;-92
2022/08/25 12:08:51;;;;;;;15.23;11.70;;;35.10;52.30;;;;;;5030552;28;20895;-93
2022/08/25 12:11:52;;;;;;;14.52;13.05;;;35.30;52.10;;;;;;5031840;28;20213;-92
2022/08/25 12:14:43;;;;;;;13.88;11.93;;;35.50;51.70;;;;;;4971115;28;20268;-89
2022/08/25 12:17:25;;;;;;;16.85;13.73;;;35.60;51.20;;;;;;5026943;28;20278;-93
2022/08/25 12:19:58;;;;;;;17.65;13.40;;;35.70;51.10;;;;;;5029065;28;20228;-89
2022/08/25 12:22:57;;;;;;;14.85;12.57;;;35.90;50.80;;;;;;5030499;28;20188;-91
2022/08/25 12:25:51;;;;;;;14.38;12.88;;;36.00;50.50;;;;;;5029532;28;20232;-92
2022/08/25 12:28:37;;;;;;;16.92;14.52;;;36.10;50.10;;;;;;5028454;28;20327;-93
2022/08/25 12:31:15;;;;;;;14.80;13.05;;;36.20;50.00;;;;;;5027802;28;20541;-92
2022/08/25 12:33:56;;;;;;;13.68;12.05;;;36.30;50.20;;;;;;5029998;28;20203;-90
2022/08/25 12:36:30;;;;;;;13.20;11.88;;;36.40;50.10;;;;;;5029106;28;20236;-90
2022/08/25 12:39:21;;;;;;;15.35;13.73;;;36.40;49.60;;;;;;5029894;28;20296;-94
2022/08/25 12:42:06;;;;;;;18.42;15.18;;;36.50;49.70;;;;;;5031455;28;20215;-93
2022/08/25 12:44:45;;;;;;;18.30;16.17;;;36.60;49.70;;;;;;5030226;28;20228;-91
2022/08/25 12:47:34;;;;;;;17.67;15.80;;;36.60;49.40;;;;;;5029426;28;20287;-91
2022/08/25 12:50:40;;;;;;;21.73;18.80;;;36.60;49.40;;;;;;5025802;28;20212;-90
2022/08/25 12:53:15;;;;;;;18.27;16.08;;;36.60;48.60;;;;;;5031305;28;20677;-91
2022/08/25 12:55:57;;;;;;;20.48;17.27;;;36.60;49.10;;;;;;5032206;28;20219;-93
2022/08/25 12:58:35;;;;;;;19.10;16.30;;;36.50;48.70;;;;;;5032191;28;20573;-92
2022/08/25 13:01:16;;;;;;;21.48;17.13;;;36.40;48.50;;;;;;5032097;28;20714;-93
2022/08/25 13:04:07;;;;;;;21.10;17.13;;;36.30;48.90;;;;;;5030493;28;20232;-93
2022/08/25 13:06:48;;;;;;;22.35;17.00;;;36.10;48.90;;;;;;5020893;28;20208;-92
2022/08/25 13:09:57;;;;;;;23.20;15.13;;;36.00;48.70;;;;;;5049380;28;20210;-93
2022/08/25 13:12:30;;;;;;;18.88;13.82;;;35.90;48.80;;;;;;5019847;28;20201;-92
2022/08/25 13:14:59;;;;;;;17.88;13.85;;;35.70;48.70;;;;;;5032877;28;20233;-92
2022/08/25 13:17:28;;;;;;;13.00;11.25;;;35.60;48.90;;;;;;5032477;28;21005;-91
2022/08/25 13:20:11;;;;;;;12.77;11.35;;;35.50;48.80;;;;;;5033762;28;20248;-93
2022/08/25 13:22:38;;;;;;;11.07;8.77;;;35.20;48.00;;;;;;5032975;28;20204;-93
2022/08/25 13:25:06;;;;;;;10.98;8.88;;;35.10;48.60;;;;;;5033038;28;20832;-91
2022/08/25 13:27:35;;;;;;;12.57;8.75;;;34.90;48.80;;;;;;5032254;28;20862;-91
2022/08/25 13:30:05;;;;;;;11.13;7.43;;;34.70;49.10;;;;;;5031955;28;20211;-92
2022/08/25 13:32:34;;;;;;;13.30;7.93;;;34.60;49.20;;;;;;5032266;28;20213;-92
2022/08/25 13:35:14;;;;;;;12.55;8.65;;;34.50;49.60;;;;;;5033320;28;20209;-92
2022/08/25 13:37:40;;;;;;;13.80;7.75;;;34.50;49.70;;;;;;5032421;28;20249;-92
2022/08/25 13:40:11;;;;;;;11.25;7.85;;;34.40;49.60;;;;;;5031700;28;20208;-93